Terminal Aerodrome Forecast
Issued by NWS Cleveland, OH

Home | Current Version | Previous Version | Text Only | Print | Product List | Glossary Off
Versions: 1 2 3 4 5 6 7 8 9 10 11 12 13 14 15 16 17 18 19 20 21 22 23 24 25 26 27 28 29

000
FTUS41 KCLE 300900 AAB
TAFCLE
TAF AMD
KCLE 300913Z 3009/0112 35010G15KT P6SM SCT015 OVC035
     FM301100 35010G15KT 3SM SHRA SCT025 OVC035
      TEMPO 3011/3015 6SM -SHRA OVC015
     FM301500 35008KT 5SM -SHRA OVC015
     FM010000 36007KT 3SM -SHRA OVC007=

USA.gov is the U.S. government's official web portal to all federal, state and local government web resources and services.